Time;durP1;ratioP1;P1;durP2;ratioP2;P2;SDS_P1;SDS_P2;PMS_P1;PMS_P2;Temp;Humidity;BMP_temperature;BMP_pressure;BME280_temperature;BME280_humidity;BME280_pressure;Samples;Min_cycle;Max_cycle;Signal;HPM_P1;HPM_P2
2022/11/22 00:00:47;;;;;;;16.97;6.80;;;;;;;5.93;100.00;99042.25;5251644;28;20039;-71
2022/11/22 00:03:18;;;;;;;17.63;6.23;;;;;;;5.77;100.00;99024.31;5251644;28;20092;-70
2022/11/22 00:05:49;;;;;;;13.63;7.70;;;;;;;5.92;100.00;99044.94;5252876;28;20033;-70
2022/11/22 00:08:21;;;;;;;16.50;7.47;;;;;;;5.92;100.00;99035.41;5252404;28;20674;-70
2022/11/22 00:10:52;;;;;;;15.97;6.93;;;;;;;5.97;100.00;99037.66;5244166;28;20117;-70
2022/11/22 00:13:23;;;;;;;15.47;6.53;;;;;;;5.97;100.00;99024.66;5252004;28;20044;-71
2022/11/22 00:15:59;;;;;;;12.13;6.70;;;;;;;5.93;100.00;99031.03;5248568;28;20033;-70
2022/11/22 00:18:31;;;;;;;11.83;6.00;;;;;;;5.91;100.00;99022.50;5250578;28;20040;-70
2022/11/22 00:21:06;;;;;;;14.17;6.53;;;;;;;6.00;100.00;99037.47;5251805;28;20028;-69
2022/11/22 00:23:37;;;;;;;21.70;6.33;;;;;;;6.02;100.00;99040.78;5251410;28;20040;-70
2022/11/22 00:26:10;;;;;;;22.17;6.50;;;;;;;6.00;100.00;99032.28;5253147;28;20029;-70
2022/11/22 00:28:42;;;;;;;13.63;5.47;;;;;;;5.91;100.00;99027.72;5251782;28;20037;-70
2022/11/22 00:31:13;;;;;;;14.83;6.97;;;;;;;5.96;100.00;99035.19;5251953;28;20040;-71
2022/11/22 00:33:44;;;;;;;13.50;5.03;;;;;;;5.95;100.00;99034.38;5253800;28;20052;-71
2022/11/22 00:36:16;;;;;;;19.17;5.47;;;;;;;5.95;100.00;99029.16;5252954;28;20475;-69
2022/11/22 00:38:47;;;;;;;12.73;6.00;;;;;;;5.97;100.00;99044.66;5255146;28;20520;-70
2022/11/22 00:41:18;;;;;;;15.27;5.27;;;;;;;5.90;100.00;99031.25;5253769;28;20050;-71
2022/11/22 00:43:49;;;;;;;12.83;6.93;;;;;;;5.92;100.00;99039.75;5253352;28;20036;-69
2022/11/22 00:46:21;;;;;;;11.03;5.13;;;;;;;5.91;100.00;99044.13;5251101;28;20025;-70
2022/11/22 00:48:52;;;;;;;13.27;5.47;;;;;;;5.92;100.00;99038.00;5253245;28;20048;-70
2022/11/22 00:51:23;;;;;;;16.37;5.07;;;;;;;5.86;100.00;99040.19;5252685;28;20101;-69
2022/11/22 00:53:54;;;;;;;16.57;4.77;;;;;;;5.85;100.00;99030.75;5253029;28;20040;-70
2022/11/22 00:56:26;;;;;;;16.83;5.10;;;;;;;5.87;100.00;99034.88;5252880;28;20033;-70
2022/11/22 00:58:57;;;;;;;15.23;6.07;;;;;;;5.84;100.00;99032.50;5246335;28;20078;-70
2022/11/22 01:01:29;;;;;;;12.77;4.37;;;;;;;5.80;100.00;99031.03;5252030;28;20111;-70
2022/11/22 01:04:00;;;;;;;8.77;4.40;;;;;;;5.73;100.00;99025.44;5253141;28;20049;-70
2022/11/22 01:06:31;;;;;;;16.70;4.97;;;;;;;5.74;100.00;99021.91;5242419;28;20029;-71
2022/11/22 01:09:03;;;;;;;13.27;4.60;;;;;;;5.75;100.00;99036.56;5245269;28;20060;-71
2022/11/22 01:11:34;;;;;;;11.53;5.67;;;;;;;5.63;100.00;99040.84;5242622;28;20030;-70
2022/11/22 01:14:06;;;;;;;15.10;4.90;;;;;;;5.61;100.00;99032.31;5249907;28;20029;-70
2022/11/22 01:16:37;;;;;;;16.67;4.47;;;;;;;5.57;100.00;99042.09;5251912;28;20033;-70
2022/11/22 01:19:09;;;;;;;13.23;4.53;;;;;;;5.60;100.00;99035.03;5251373;28;20087;-70
2022/11/22 01:21:41;;;;;;;15.33;5.67;;;;;;;5.62;100.00;99036.56;5257320;28;20017;-71
2022/11/22 01:24:12;;;;;;;16.17;5.20;;;;;;;5.54;100.00;99031.06;5256757;28;20114;-70
2022/11/22 01:26:43;;;;;;;14.67;4.27;;;;;;;5.57;100.00;99046.44;5256722;28;20029;-70
2022/11/22 01:29:14;;;;;;;16.50;4.27;;;;;;;5.59;100.00;99043.72;5251893;28;20060;-70
2022/11/22 01:31:46;;;;;;;11.50;4.10;;;;;;;5.51;100.00;99046.88;5254536;28;20033;-70
2022/11/22 01:34:17;;;;;;;11.60;3.83;;;;;;;5.54;100.00;99044.91;5253159;28;20093;-70
2022/11/22 01:36:48;;;;;;;16.83;4.70;;;;;;;5.50;100.00;99051.22;5254286;28;20033;-70
2022/11/22 01:39:20;;;;;;;17.77;4.70;;;;;;;5.52;100.00;99046.75;5254418;28;20037;-70
2022/11/22 01:41:51;;;;;;;17.23;4.80;;;;;;;5.51;100.00;99058.09;5255222;28;20029;-69
2022/11/22 01:44:28;;;;;;;13.87;4.00;;;;;;;5.49;100.00;99059.13;5251289;28;20025;-69
2022/11/22 01:47:05;;;;;;;13.93;4.23;;;;;;;5.50;100.00;99066.00;5251346;28;20430;-69
2022/11/22 01:49:47;;;;;;;13.63;3.67;;;;;;;5.43;100.00;99065.53;5249549;28;20104;-70
2022/11/22 01:52:22;;;;;;;17.13;4.33;;;;;;;5.44;100.00;99056.84;5250599;28;20032;-69
2022/11/22 01:55:01;;;;;;;20.57;4.83;;;;;;;5.54;100.00;99073.47;5254147;28;20025;-69
2022/11/22 01:57:37;;;;;;;18.20;3.63;;;;;;;5.53;100.00;99078.75;5254187;28;20607;-69
2022/11/22 02:00:12;;;;;;;12.37;3.97;;;;;;;5.47;100.00;99072.19;5252824;28;20239;-69
2022/11/22 02:02:46;;;;;;;24.08;4.10;;;;;;;5.50;100.00;99068.59;5250646;28;20037;-70
2022/11/22 02:05:20;;;;;;;15.27;3.65;;;;;;;5.32;100.00;99054.13;5251454;28;20056;-70
2022/11/22 02:08:04;;;;;;;;;;;;;;;5.55;100.00;99080.31;5252844;28;20476;-69
2022/11/22 02:10:42;;;;;;;18.03;4.00;;;;;;;5.42;100.00;99076.88;5249800;28;19926;-69
2022/11/22 02:13:15;;;;;;;13.70;4.00;;;;;;;5.33;100.00;99084.34;5253733;28;20116;-69
2022/11/22 02:15:46;;;;;;;17.37;3.67;;;;;;;5.45;100.00;99079.25;5252916;28;20439;-69
2022/11/22 02:18:18;;;;;;;17.70;3.63;;;;;;;5.39;100.00;99083.13;5253412;28;20040;-69
2022/11/22 02:20:49;;;;;;;13.00;3.90;;;;;;;5.33;100.00;99078.31;5248197;28;20038;-70
2022/11/22 02:23:50;;;;;;;19.17;4.53;;;;;;;5.41;100.00;99083.00;5246877;28;20048;-70
2022/11/22 02:26:27;;;;;;;24.13;3.83;;;;;;;5.31;100.00;99062.84;5253724;28;20028;-70
2022/11/22 02:29:06;;;;;;;22.57;5.10;;;;;;;5.36;100.00;99085.09;5253091;28;20450;-71
2022/11/22 02:31:44;;;;;;;17.20;3.87;;;;;;;5.37;100.00;99082.38;5246254;28;20067;-71
2022/11/22 02:34:15;;;;;;;20.87;3.47;;;;;;;5.38;100.00;99094.41;5240781;28;20440;-70
2022/11/22 02:36:52;;;;;;;16.00;3.67;;;;;;;5.36;100.00;99095.47;5232098;28;20220;-71
2022/11/22 02:39:29;;;;;;;24.07;4.70;;;;;;;5.28;100.00;99088.19;5232569;28;20030;-71
2022/11/22 02:42:01;;;;;;;23.77;4.50;;;;;;;5.29;100.00;99090.66;5251178;28;20075;-71
2022/11/22 02:44:33;;;;;;;20.90;5.00;;;;;;;5.25;100.00;99086.63;5270614;28;20032;-70
2022/11/22 02:47:04;;;;;;;16.57;3.70;;;;;;;5.15;100.00;99075.19;5254350;28;20025;-71
2022/11/22 02:49:35;;;;;;;19.30;4.17;;;;;;;5.24;100.00;99086.69;5250744;28;20131;-70
2022/11/22 02:52:07;;;;;;;27.87;5.00;;;;;;;5.14;100.00;99095.09;5255247;28;20039;-71
2022/11/22 02:54:38;;;;;;;24.10;4.63;;;;;;;5.24;100.00;99090.13;5255544;28;20025;-71
2022/11/22 02:57:09;;;;;;;25.93;4.17;;;;;;;5.16;100.00;99089.81;5255140;28;20279;-71
2022/11/22 02:59:41;;;;;;;23.77;4.90;;;;;;;5.23;100.00;99100.63;5255017;28;20039;-71
2022/11/22 03:02:12;;;;;;;22.97;3.63;;;;;;;5.23;100.00;99096.28;5253856;28;20048;-70
2022/11/22 03:04:43;;;;;;;23.63;5.43;;;;;;;5.17;100.00;99094.91;5253881;28;20089;-70
2022/11/22 03:07:16;;;;;;;15.43;4.23;;;;;;;5.18;100.00;99090.56;5253853;28;20071;-71
2022/11/22 03:09:47;;;;;;;17.23;3.60;;;;;;;5.08;100.00;99085.94;5254141;28;20021;-70
2022/11/22 03:12:18;;;;;;;19.37;4.50;;;;;;;5.15;100.00;99099.34;5247781;28;20033;-71
2022/11/22 03:14:49;;;;;;;16.73;3.57;;;;;;;5.07;100.00;99102.47;5239038;28;20083;-68
2022/11/22 03:17:21;;;;;;;17.20;3.87;;;;;;;5.01;100.00;99108.03;5252609;28;20029;-68
2022/11/22 03:19:52;;;;;;;18.87;4.13;;;;;;;5.08;100.00;99124.88;5256135;28;20032;-69
2022/11/22 03:22:23;;;;;;;18.90;3.83;;;;;;;5.04;100.00;99113.06;5255009;28;20612;-70
2022/11/22 03:24:55;;;;;;;23.97;3.87;;;;;;;5.03;100.00;99121.75;5248730;28;20082;-70
2022/11/22 03:27:26;;;;;;;20.10;3.70;;;;;;;4.94;100.00;99111.97;5254291;28;20029;-69
2022/11/22 03:29:57;;;;;;;28.00;6.00;;;;;;;5.00;100.00;99123.72;5253286;28;20025;-69
2022/11/22 03:32:28;;;;;;;22.73;5.13;;;;;;;4.94;100.00;99111.97;5249219;28;20086;-70
2022/11/22 03:35:00;;;;;;;20.00;4.37;;;;;;;4.91;100.00;99117.34;5236260;28;20041;-70
2022/11/22 03:37:31;;;;;;;17.40;3.30;;;;;;;4.90;100.00;99121.72;5245151;28;20033;-70
2022/11/22 03:40:03;;;;;;;18.30;3.43;;;;;;;4.78;100.00;99123.31;5243135;28;20029;-70
2022/11/22 03:42:34;;;;;;;25.90;5.17;;;;;;;4.88;100.00;99113.19;5252585;28;20104;-70
2022/11/22 03:45:06;;;;;;;18.23;4.17;;;;;;;4.82;100.00;99122.19;5251598;28;20624;-70
2022/11/22 03:47:37;;;;;;;22.10;5.50;;;;;;;4.82;100.00;99117.00;5256851;28;20029;-70
2022/11/22 03:50:08;;;;;;;23.67;5.07;;;;;;;4.84;100.00;99117.75;5253908;28;20136;-70
2022/11/22 03:52:40;;;;;;;22.70;3.80;;;;;;;4.61;100.00;99116.59;5241553;28;20729;-70
2022/11/22 03:55:11;;;;;;;21.03;3.90;;;;;;;4.69;100.00;99123.91;5254290;28;20053;-70
2022/11/22 03:57:42;;;;;;;26.37;5.20;;;;;;;4.68;100.00;99119.63;5240456;28;20032;-70
2022/11/22 04:00:14;;;;;;;18.13;3.97;;;;;;;4.58;100.00;99122.81;5252963;28;20025;-70
2022/11/22 04:02:45;;;;;;;22.00;4.93;;;;;;;4.70;100.00;99126.41;5246398;28;20373;-70
2022/11/22 04:05:16;;;;;;;17.10;4.10;;;;;;;4.65;100.00;99132.81;5244017;28;20029;-70
2022/11/22 04:07:48;;;;;;;19.73;3.73;;;;;;;4.62;100.00;99122.63;5250593;28;20074;-70
2022/11/22 04:10:19;;;;;;;17.10;3.63;;;;;;;4.51;100.00;99124.13;5254189;28;20025;-70
2022/11/22 04:12:51;;;;;;;17.60;4.00;;;;;;;4.51;100.00;99126.72;5243521;28;20037;-70
2022/11/22 04:15:22;;;;;;;17.30;3.43;;;;;;;4.49;100.00;99136.34;5240863;28;20047;-70
2022/11/22 04:17:53;;;;;;;23.33;4.67;;;;;;;4.42;100.00;99148.03;5253824;28;20467;-70
2022/11/22 04:23:20;;;;;;;25.00;4.97;;;;;;;4.38;100.00;99155.16;5242795;28;20037;-70
2022/11/22 04:25:53;;;;;;;18.03;4.37;;;;;;;4.47;100.00;99161.53;5253928;28;20029;-70
2022/11/22 04:28:24;;;;;;;22.40;4.07;;;;;;;4.33;100.00;99154.59;5253320;28;20139;-70
2022/11/22 04:33:46;;;;;;;23.97;5.20;;;;;;;4.25;100.00;99144.72;5242938;28;20044;-70
2022/11/22 04:36:17;;;;;;;15.67;3.50;;;;;;;4.28;100.00;99147.13;5253261;28;20025;-69
2022/11/22 04:38:48;;;;;;;22.73;4.37;;;;;;;4.27;100.00;99150.66;5253337;28;20025;-70
2022/11/22 04:41:20;;;;;;;21.13;3.60;;;;;;;4.29;100.00;99155.72;5253529;28;20075;-70
2022/11/22 04:46:41;;;;;;;17.63;3.67;;;;;;;4.21;100.00;99145.81;5250833;28;20033;-70
2022/11/22 04:49:12;;;;;;;20.63;4.47;;;;;;;4.22;100.00;99156.09;5251513;28;20017;-70
2022/11/22 04:54:33;;;;;;;25.93;5.03;;;;;;;4.26;100.00;99161.91;5251945;28;20033;-70
2022/11/22 04:57:04;;;;;;;18.90;3.53;;;;;;;4.21;100.00;99161.38;5257380;28;20558;-70
2022/11/22 04:59:35;;;;;;;12.97;3.50;;;;;;;4.22;100.00;99170.81;5257452;28;20042;-70
2022/11/22 05:02:07;;;;;;;18.93;5.87;;;;;;;4.19;100.00;99169.22;5254489;28;20032;-70
2022/11/22 05:04:38;;;;;;;16.47;4.93;;;;;;;4.05;100.00;99153.72;5257469;28;20094;-70
2022/11/22 05:07:10;;;;;;;20.80;4.60;;;;;;;4.17;100.00;99171.06;5256872;28;20474;-70
2022/11/22 05:09:41;;;;;;;18.70;4.60;;;;;;;4.05;100.00;99177.03;5257066;28;20032;-70
2022/11/22 05:12:12;;;;;;;17.13;3.97;;;;;;;4.06;100.00;99171.75;5257612;28;20036;-70
2022/11/22 05:14:43;;;;;;;15.43;3.97;;;;;;;4.04;100.00;99155.44;5256402;28;20021;-71
2022/11/22 05:17:15;;;;;;;18.73;4.30;;;;;;;4.03;100.00;99174.53;5256885;28;20033;-70
2022/11/22 05:19:46;;;;;;;16.97;3.23;;;;;;;3.97;100.00;99159.31;5257063;28;20025;-69
2022/11/22 05:23:52;;;;;;;12.00;3.23;;;;;;;3.97;100.00;99167.09;5257262;28;20105;-70
2022/11/22 05:25:09;;;;;;;22.47;4.00;;;;;;;3.96;100.00;99162.84;5255456;28;20029;-70
2022/11/22 05:27:40;;;;;;;16.80;3.27;;;;;;;4.06;100.00;99176.94;5257095;28;20017;-70
2022/11/22 05:30:11;;;;;;;14.93;2.97;;;;;;;3.98;100.00;99167.00;5255501;28;20041;-70
2022/11/22 05:32:42;;;;;;;14.70;3.20;;;;;;;3.75;100.00;99134.72;5243407;28;20045;-70
2022/11/22 05:35:14;;;;;;;16.00;5.47;;;;;;;3.83;100.00;99155.81;5256783;28;20025;-70
2022/11/22 05:37:45;;;;;;;16.30;3.63;;;;;;;3.82;100.00;99161.06;5256801;28;20100;-70
2022/11/22 05:40:16;;;;;;;16.67;3.47;;;;;;;3.91;100.00;99160.50;5255103;28;20024;-70
2022/11/22 05:42:47;;;;;;;11.83;3.50;;;;;;;3.80;100.00;99158.59;5256121;28;20072;-70
2022/11/22 05:45:19;;;;;;;16.27;3.87;;;;;;;3.73;100.00;99155.53;5254829;28;20147;-70
2022/11/22 05:47:50;;;;;;;16.20;3.27;;;;;;;3.74;100.00;99162.34;5249578;28;20067;-70
2022/11/22 05:50:22;;;;;;;14.77;2.70;;;;;;;3.83;100.00;99158.41;5249576;28;20041;-70
2022/11/22 05:52:53;;;;;;;15.10;4.83;;;;;;;3.88;100.00;99165.88;5250080;28;20060;-70
2022/11/22 05:55:25;;;;;;;17.30;3.27;;;;;;;3.83;100.00;99153.22;5249041;28;20037;-70
2022/11/22 05:58:02;;;;;;;13.23;4.03;;;;;;;3.76;100.00;99151.91;5256301;28;20449;-70
2022/11/22 06:00:33;;;;;;;20.93;3.77;;;;;;;3.85;100.00;99155.72;5258075;28;20467;-70
2022/11/22 06:03:05;;;;;;;22.27;3.93;;;;;;;3.77;100.00;99143.19;5248918;28;20065;-70
2022/11/22 06:05:36;;;;;;;17.00;4.70;;;;;;;3.73;100.00;99152.09;5251803;28;20102;-70
2022/11/22 06:08:07;;;;;;;15.87;3.60;;;;;;;3.66;100.00;99161.97;5255483;28;20035;-70
2022/11/22 06:10:38;;;;;;;11.30;3.40;;;;;;;3.65;100.00;99154.31;5253855;28;20036;-70
2022/11/22 06:13:10;;;;;;;11.83;3.53;;;;;;;3.60;100.00;99157.97;5254510;28;20056;-70
2022/11/22 06:15:41;;;;;;;18.80;3.83;;;;;;;3.62;100.00;99152.72;5254905;28;20423;-70
2022/11/22 06:18:12;;;;;;;16.17;3.23;;;;;;;3.59;100.00;99156.31;5254693;28;20603;-70
2022/11/22 06:20:44;;;;;;;9.37;2.60;;;;;;;3.52;100.00;99160.19;5255428;28;20145;-69
2022/11/22 06:23:16;;;;;;;17.90;4.10;;;;;;;3.60;100.00;99160.56;5254325;28;20116;-70
2022/11/22 06:25:55;;;;;;;21.40;3.70;;;;;;;3.64;100.00;99158.63;5254660;28;20032;-70
2022/11/22 06:28:28;;;;;;;17.13;3.33;;;;;;;3.61;100.00;99177.75;5255507;28;20048;-70
2022/11/22 06:31:01;;;;;;;18.20;3.43;;;;;;;3.54;100.00;99163.53;5253500;28;20199;-70
2022/11/22 06:33:33;;;;;;;20.40;2.73;;;;;;;3.63;100.00;99175.91;5241797;28;20033;-69
2022/11/22 06:36:07;;;;;;;17.97;3.67;;;;;;;3.58;100.00;99175.34;5256260;28;20025;-70
2022/11/22 06:38:40;;;;;;;10.80;2.67;;;;;;;3.65;100.00;99177.59;5255835;28;20578;-70
2022/11/22 06:41:20;;;;;;;12.93;2.77;;;;;;;3.54;100.00;99176.47;5255435;28;20111;-70
2022/11/22 06:43:53;;;;;;;13.13;3.23;;;;;;;3.49;100.00;99178.50;5240442;28;20025;-70
2022/11/22 06:46:26;;;;;;;11.17;2.67;;;;;;;3.56;100.00;99184.94;5254564;28;20139;-70
2022/11/22 06:48:57;;;;;;;15.77;3.40;;;;;;;3.53;100.00;99179.97;5254035;28;20056;-70
2022/11/22 06:51:30;;;;;;;12.00;3.17;;;;;;;3.57;100.00;99186.63;5253279;28;20118;-70
2022/11/22 06:54:01;;;;;;;17.13;4.47;;;;;;;3.54;100.00;99189.41;5255214;28;20090;-70
2022/11/22 06:56:37;;;;;;;16.90;5.00;;;;;;;3.60;100.00;99183.88;5252445;28;20040;-70
2022/11/22 06:59:09;;;;;;;23.50;4.27;;;;;;;3.47;100.00;99185.50;5254012;28;20021;-70
2022/11/22 07:01:40;;;;;;;14.27;4.47;;;;;;;3.62;100.00;99197.56;5254197;28;20055;-70
2022/11/22 07:04:11;;;;;;;13.93;3.97;;;;;;;3.59;100.00;99197.75;5254032;28;20045;-70
2022/11/22 07:06:43;;;;;;;16.00;3.80;;;;;;;3.66;100.00;99208.59;5253409;28;20056;-70
2022/11/22 07:09:15;;;;;;;14.93;3.20;;;;;;;3.71;100.00;99213.47;5254607;28;20029;-70
2022/11/22 07:11:46;;;;;;;19.07;4.80;;;;;;;3.69;100.00;99211.00;5254632;28;20044;-70
2022/11/22 07:14:17;;;;;;;15.53;4.73;;;;;;;3.70;100.00;99214.41;5250346;28;20024;-70
2022/11/22 07:16:49;;;;;;;18.90;6.30;;;;;;;3.75;100.00;99207.22;5248085;28;20029;-70
2022/11/22 07:19:20;;;;;;;12.17;4.00;;;;;;;3.74;100.00;99208.13;5247623;28;20029;-71
2022/11/22 07:21:52;;;;;;;19.23;4.03;;;;;;;3.66;100.00;99202.56;5248713;28;20029;-70
2022/11/22 07:24:23;;;;;;;14.57;3.93;;;;;;;3.72;100.00;99207.38;5249120;28;20464;-70
2022/11/22 07:26:54;;;;;;;15.40;4.17;;;;;;;3.73;100.00;99203.88;5249867;28;20044;-70
2022/11/22 07:29:26;;;;;;;12.63;3.27;;;;;;;3.81;100.00;99211.19;5250777;28;20036;-70
2022/11/22 07:31:57;;;;;;;15.77;4.40;;;;;;;3.80;100.00;99214.72;5251900;28;20043;-70
2022/11/22 07:34:28;;;;;;;13.50;3.47;;;;;;;3.83;100.00;99214.53;5253885;28;20046;-70
2022/11/22 07:36:59;;;;;;;13.27;3.00;;;;;;;3.86;100.00;99219.53;5254469;28;20103;-69
2022/11/22 07:39:31;;;;;;;12.33;3.43;;;;;;;3.89;100.00;99221.13;5251415;28;20033;-70
2022/11/22 07:42:02;;;;;;;12.97;3.33;;;;;;;3.87;100.00;99221.22;5244737;28;20033;-70
2022/11/22 07:44:33;;;;;;;15.57;3.20;;;;;;;3.95;100.00;99216.41;5252366;28;20060;-70
2022/11/22 07:47:04;;;;;;;14.93;2.70;;;;;;;3.93;100.00;99212.22;5249592;28;20124;-70
2022/11/22 07:49:36;;;;;;;13.70;4.13;;;;;;;3.97;100.00;99216.31;5252847;28;20040;-69
2022/11/22 07:52:07;;;;;;;19.43;3.33;;;;;;;3.95;100.00;99223.34;5251959;28;20116;-70
2022/11/22 07:54:38;;;;;;;7.97;2.80;;;;;;;3.95;100.00;99208.63;5252596;28;20064;-69
2022/11/22 07:57:09;;;;;;;22.07;3.43;;;;;;;4.10;100.00;99221.63;5250138;28;20033;-70
2022/11/22 07:59:41;;;;;;;17.43;3.83;;;;;;;4.14;100.00;99224.88;5250448;28;20029;-70
2022/11/22 08:02:12;;;;;;;10.17;2.70;;;;;;;4.02;100.00;99198.75;5252659;28;20052;-70
2022/11/22 08:04:43;;;;;;;13.97;3.10;;;;;;;4.15;100.00;99213.56;5252200;28;20049;-70
2022/11/22 08:07:15;;;;;;;8.97;2.27;;;;;;;4.06;100.00;99209.75;5249157;28;20313;-69
2022/11/22 08:09:46;;;;;;;10.63;3.17;;;;;;;4.20;100.00;99216.72;5248899;28;20032;-70
2022/11/22 08:12:17;;;;;;;16.27;3.60;;;;;;;4.21;100.00;99218.38;5253706;28;20037;-70
2022/11/22 08:14:48;;;;;;;11.37;3.53;;;;;;;4.31;100.00;99221.28;5243816;28;20035;-70
2022/11/22 08:17:20;;;;;;;11.27;3.20;;;;;;;4.29;100.00;99236.91;5252391;28;20032;-70
2022/11/22 08:19:52;;;;;;;10.87;2.50;;;;;;;4.29;100.00;99226.56;5246696;28;20017;-70
2022/11/22 08:22:23;;;;;;;9.60;2.33;;;;;;;4.30;100.00;99225.63;5249227;28;20068;-70
2022/11/22 08:24:54;;;;;;;11.27;2.57;;;;;;;4.27;100.00;99228.41;5244668;28;20064;-70
2022/11/22 08:27:26;;;;;;;14.63;2.57;;;;;;;4.26;100.00;99231.09;5251994;28;20148;-70
2022/11/22 08:29:57;;;;;;;18.27;3.13;;;;;;;4.31;100.00;99234.22;5250687;28;20047;-70
2022/11/22 08:32:28;;;;;;;13.33;3.90;;;;;;;4.27;100.00;99227.56;5245942;28;20123;-71
2022/11/22 08:34:59;;;;;;;11.37;2.60;;;;;;;4.31;100.00;99232.44;5245010;28;20033;-70
2022/11/22 08:37:31;;;;;;;21.57;6.80;;;;;;;4.20;100.00;99211.53;5251761;28;20025;-73
2022/11/22 08:40:03;;;;;;;13.17;2.70;;;;;;;4.34;100.00;99234.88;5250120;28;20108;-70
2022/11/22 08:42:34;;;;;;;13.00;3.23;;;;;;;4.41;100.00;99250.06;5241320;28;20033;-70
2022/11/22 08:45:06;;;;;;;9.37;2.63;;;;;;;4.52;100.00;99245.03;5251922;28;20135;-70
2022/11/22 08:47:38;;;;;;;12.23;3.90;;;;;;;4.39;100.00;99231.16;5252497;28;20017;-70
2022/11/22 08:50:09;;;;;;;15.07;2.60;;;;;;;4.46;100.00;99242.84;5252810;28;20033;-70
2022/11/22 08:52:40;;;;;;;12.17;4.23;;;;;;;4.53;100.00;99246.72;5251748;28;20052;-70
2022/11/22 08:55:12;;;;;;;16.80;6.03;;;;;;;4.58;100.00;99236.06;5252190;28;20426;-70
2022/11/22 08:57:43;;;;;;;17.70;6.30;;;;;;;4.61;100.00;99241.06;5251809;28;20030;-70
2022/11/22 09:00:15;;;;;;;22.90;7.63;;;;;;;4.68;100.00;99244.13;5251767;28;20884;-70
2022/11/22 09:02:46;;;;;;;13.93;3.70;;;;;;;4.64;100.00;99238.31;5251628;28;20060;-70
2022/11/22 09:05:17;;;;;;;16.10;3.60;;;;;;;4.66;100.00;99244.22;5246050;28;20464;-69
2022/11/22 09:07:49;;;;;;;10.93;3.03;;;;;;;4.71;100.00;99238.75;5247423;28;20486;-70
2022/11/22 09:10:20;;;;;;;11.53;2.93;;;;;;;4.75;100.00;99237.63;5267354;28;20032;-70
2022/11/22 09:12:51;;;;;;;8.93;2.57;;;;;;;4.74;100.00;99241.16;5251415;28;20029;-70
2022/11/22 09:15:23;;;;;;;10.17;2.17;;;;;;;4.90;100.00;99248.84;5251004;28;20028;-70
2022/11/22 09:18:01;;;;;;;15.43;3.10;;;;;;;4.86;100.00;99249.94;5251806;28;20025;-70
2022/11/22 09:20:32;;;;;;;10.57;2.60;;;;;;;4.84;100.00;99251.78;5241050;28;20055;-69
2022/11/22 09:23:04;;;;;;;12.40;2.60;;;;;;;4.87;100.00;99255.97;5252939;28;20454;-69
2022/11/22 09:25:35;;;;;;;6.13;2.00;;;;;;;4.90;100.00;99250.59;5249475;28;20026;-69
2022/11/22 09:28:06;;;;;;;10.97;2.47;;;;;;;4.92;100.00;99249.56;5249581;28;20131;-69
2022/11/22 09:30:37;;;;;;;8.80;2.43;;;;;;;4.97;100.00;99251.88;5251748;28;20031;-69
2022/11/22 09:33:09;;;;;;;10.03;2.67;;;;;;;5.03;100.00;99261.88;5252473;28;20126;-69
2022/11/22 09:35:40;;;;;;;12.30;2.37;;;;;;;5.11;100.00;99257.97;5252460;28;20063;-70
2022/11/22 09:38:11;;;;;;;9.53;2.93;;;;;;;5.12;100.00;99252.69;5252486;28;20080;-71
2022/11/22 09:40:46;;;;;;;10.77;2.37;;;;;;;5.09;100.00;99250.28;5254789;28;20487;-70
2022/11/22 09:43:26;;;;;;;9.60;1.80;;;;;;;5.31;100.00;99249.75;5256427;28;20497;-71
2022/11/22 09:46:10;;;;;;;10.17;2.53;;;;;;;5.28;100.00;99252.56;5242312;28;20040;-69
2022/11/22 09:49:02;;;;;;;10.82;2.83;;;;;;;5.32;100.00;99251.41;5256326;28;20025;-72
2022/11/22 09:51:43;;;;;;;11.80;2.20;;;;;;;5.40;100.00;99263.06;5246246;28;20024;-71
2022/11/22 09:54:26;;;;;;;9.63;2.93;;;;;;;5.45;100.00;99245.44;5256124;28;20086;-69
2022/11/22 09:57:03;;;;;;;10.97;2.00;;;;;;;5.42;100.00;99256.03;5255282;28;20040;-69
2022/11/22 09:59:37;;;;;;;6.40;1.60;;;;;;;5.39;100.00;99244.09;5253100;28;20499;-68
2022/11/22 10:02:32;;;;;;;8.87;2.87;;;;;;;5.54;100.00;99259.59;5253627;28;20038;-72
2022/11/22 10:05:14;;;;;;;10.27;1.80;;;;;;;5.40;100.00;99252.69;5255837;28;20052;-73
2022/11/22 10:07:55;;;;;;;7.33;1.90;;;;;;;5.38;100.00;99260.59;5254702;28;20025;-72
2022/11/22 10:10:37;;;;;;;8.33;2.40;;;;;;;5.41;100.00;99264.75;5255647;28;20072;-70
2022/11/22 10:13:18;;;;;;;6.90;1.70;;;;;;;5.38;100.00;99262.34;5253630;28;20025;-70
2022/11/22 10:16:31;;;;;;;7.17;2.50;;;;;;;5.44;100.00;99259.38;5254465;28;20037;-71
2022/11/22 10:19:14;;;;;;;6.33;1.70;;;;;;;5.41;100.00;99250.00;5254247;28;20029;-71
2022/11/22 10:21:48;;;;;;;7.00;2.47;;;;;;;5.55;100.00;99261.28;5255810;28;20029;-75
2022/11/22 10:24:19;;;;;;;7.18;2.05;;;;;;;5.46;100.00;99252.31;5247208;28;20025;-75
2022/11/22 10:26:52;;;;;;;4.47;1.70;;;;;;;5.47;100.00;99250.53;5256049;28;20383;-76
2022/11/22 10:29:37;;;;;;;5.87;1.83;;;;;;;5.47;100.00;99248.78;5254406;28;20071;-74
2022/11/22 10:32:35;;;;;;;;;;;;;;;5.62;100.00;99248.72;5271113;28;20028;-76
2022/11/22 10:35:38;;;;;;;10.70;2.30;;;;;;;5.61;100.00;99244.44;5231982;28;19921;-73
2022/11/22 10:38:38;;;;;;;6.37;1.60;;;;;;;5.59;100.00;99238.50;5248941;28;20479;-72
2022/11/22 10:41:29;;;;;;;6.00;1.50;;;;;;;5.71;100.00;99235.13;5252623;28;20471;-72
2022/11/22 10:44:24;;;;;;;9.20;1.83;;;;;;;5.74;100.00;99239.31;5254723;28;20032;-71
2022/11/22 10:47:05;;;;;;;6.70;2.47;;;;;;;5.78;100.00;99233.78;5254689;28;20251;-72
2022/11/22 10:50:12;;;;;;;4.97;1.43;;;;;;;5.88;100.00;99231.41;5254958;28;20033;-72
2022/11/22 10:53:00;;;;;;;5.23;1.60;;;;;;;5.98;100.00;99236.84;5193808;28;20035;-71
2022/11/22 10:55:49;;;;;;;4.73;1.93;;;;;;;5.96;100.00;99225.72;5252607;28;20075;-72
2022/11/22 10:58:53;;;;;;;6.07;3.13;;;;;;;5.86;100.00;99209.06;5250366;28;20080;-71
2022/11/22 11:02:01;;;;;;;3.67;1.20;;;;;;;5.96;100.00;99228.31;5254114;28;20094;-71
2022/11/22 11:04:36;;;;;;;7.27;2.47;;;;;;;5.91;100.00;99227.78;5254255;28;20068;-70
2022/11/22 11:07:14;;;;;;;13.10;5.33;;;;;;;5.93;100.00;99215.53;5254617;28;20033;-70
2022/11/22 11:09:51;;;;;;;5.90;3.10;;;;;;;5.90;100.00;99223.53;5255036;28;20029;-70
2022/11/22 11:12:41;;;;;;;5.13;2.13;;;;;;;5.94;100.00;99217.19;5253143;28;20033;-71
2022/11/22 11:15:23;;;;;;;6.93;1.53;;;;;;;5.92;100.00;99211.25;5243930;28;20035;-71
2022/11/22 11:17:59;;;;;;;5.47;1.40;;;;;;;5.96;100.00;99197.13;5254883;28;20703;-70
2022/11/22 11:20:36;;;;;;;4.50;1.67;;;;;;;5.98;100.00;99203.06;5254090;28;20694;-71
2022/11/22 11:23:09;;;;;;;2.77;1.07;;;;;;;6.02;100.00;99207.09;5254653;28;20162;-71
2022/11/22 11:25:43;;;;;;;7.40;2.23;;;;;;;6.00;100.00;99203.78;5254141;28;20025;-72
2022/11/22 11:28:21;;;;;;;5.65;1.23;;;;;;;6.00;100.00;99196.00;5252254;28;20017;-70
2022/11/22 11:30:59;;;;;;;2.37;0.93;;;;;;;5.97;100.00;99187.56;5252671;28;20423;-71
2022/11/22 11:33:37;;;;;;;5.07;1.47;;;;;;;5.97;100.00;99190.97;5254467;28;20063;-70
2022/11/22 11:36:14;;;;;;;4.07;1.17;;;;;;;6.00;100.00;99198.59;5254537;28;20032;-72
2022/11/22 11:38:53;;;;;;;1.57;1.23;;;;;;;6.04;100.00;99188.81;5269445;28;20044;-71
2022/11/22 11:41:32;;;;;;;5.43;1.13;;;;;;;6.07;100.00;99185.22;5253947;28;20068;-71
2022/11/22 11:44:04;;;;;;;2.97;1.00;;;;;;;6.03;100.00;99188.00;5253742;28;20107;-71
2022/11/22 11:46:38;;;;;;;3.67;0.90;;;;;;;6.06;100.00;99192.16;5246918;28;20116;-71
2022/11/22 11:49:15;;;;;;;2.22;0.90;;;;;;;6.12;100.00;99190.94;5253544;28;20048;-72
2022/11/22 11:51:48;;;;;;;4.17;0.83;;;;;;;6.13;100.00;99192.56;5254451;28;20094;-70
2022/11/22 11:54:24;;;;;;;2.37;0.87;;;;;;;6.18;100.00;99190.50;5253623;28;20033;-71
2022/11/22 11:56:58;;;;;;;5.07;1.53;;;;;;;6.22;100.00;99194.56;5254029;28;20111;-71
2022/11/22 11:59:42;;;;;;;2.97;0.80;;;;;;;6.24;100.00;99195.28;5250950;28;20050;-71
2022/11/22 12:02:39;;;;;;;2.72;1.02;;;;;;;6.25;100.00;99202.16;5253899;28;20074;-71
2022/11/22 12:05:13;;;;;;;3.23;1.00;;;;;;;6.29;100.00;99193.22;5242884;28;20499;-71
2022/11/22 12:07:46;;;;;;;19.45;7.97;;;;;;;6.37;100.00;99194.47;5253215;28;20033;-71
2022/11/22 12:10:35;;;;;;;6.40;1.83;;;;;;;6.33;100.00;99198.19;5253671;28;20403;-70